Terminal Aerodrome Forecast
Issued by NWS Wilmington, OH

Current Version | Previous Version | Text Only | Print | Product List | Glossary Off
Versions: 1 2 3 4 5 6 7 8 9 10 11 12 13 14 15 16 17 18 19 20 21

000
FTUS41 KILN 312100 AAA
TAFCMH
TAF AMD
KCMH 312121Z 3121/0118 20008KT P6SM VCSH BKN035
     FM010000 19005KT P6SM BKN040
     FM010300 19005KT 5SM BR OVC015
     FM010600 19004KT 2SM BR VCSH OVC012
     FM011200 19006KT 3SM -SHRA BR OVC008
     FM011600 20010KT P6SM VCSH BKN018
     FM011700 21010G18KT P6SM BKN025=

USA.gov is the U.S. government's official web portal to all federal, state and local government web resources and services.